createdAt,value
2018-06-25T00:00:03.478Z,20.39
2018-06-25T00:02:32.750Z,20.40
2018-06-25T00:05:02.072Z,20.54
2018-06-25T00:07:31.318Z,20.24
2018-06-25T00:10:00.455Z,20.54
2018-06-25T00:12:29.728Z,20.29
2018-06-25T00:14:58.965Z,20.43
2018-06-25T00:17:28.254Z,19.68
2018-06-25T00:19:57.624Z,20.08
2018-06-25T00:22:26.967Z,19.23
2018-06-25T00:24:56.122Z,19.76
2018-06-25T00:27:25.371Z,20.00
2018-06-25T00:29:54.602Z,20.00
2018-06-25T00:32:23.941Z,19.63
2018-06-25T00:34:53.326Z,19.70
2018-06-25T00:37:22.556Z,19.89
2018-06-25T00:39:52.025Z,20.00
2018-06-25T00:42:21.239Z,19.47
2018-06-25T00:44:50.410Z,19.31
2018-06-25T00:47:19.805Z,19.37
2018-06-25T00:49:49.104Z,19.52
2018-06-25T00:52:18.347Z,19.72
2018-06-25T00:54:47.722Z,19.78
2018-06-25T00:57:16.968Z,19.45
2018-06-25T00:59:53.897Z,19.86
2018-06-25T01:02:23.249Z,19.69
2018-06-25T01:04:52.489Z,19.78
2018-06-25T01:07:21.649Z,20.06
2018-06-25T01:09:50.876Z,20.00
2018-06-25T01:12:20.122Z,20.00
2018-06-25T01:14:49.390Z,19.89
2018-06-25T01:17:18.551Z,20.07
2018-06-25T01:19:47.905Z,20.13
2018-06-25T01:22:18.034Z,20.15
2018-06-25T01:24:47.310Z,20.15
2018-06-25T01:27:16.443Z,19.93
2018-06-25T01:29:45.643Z,19.80
2018-06-25T01:32:15.045Z,19.89
2018-06-25T01:34:44.353Z,19.90
2018-06-25T01:37:13.752Z,20.06
2018-06-25T01:39:43.141Z,19.87
2018-06-25T01:42:12.672Z,20.12
2018-06-25T01:44:42.055Z,20.13
2018-06-25T01:47:11.494Z,19.86
2018-06-25T01:49:40.730Z,19.99
2018-06-25T01:52:09.943Z,20.07
2018-06-25T01:54:39.271Z,19.63
2018-06-25T01:57:08.642Z,19.78
2018-06-25T01:59:38.082Z,19.68
2018-06-25T02:02:07.350Z,19.81
2018-06-25T02:04:36.686Z,19.57
2018-06-25T02:07:05.974Z,19.66
2018-06-25T02:09:35.374Z,19.48
2018-06-25T02:12:04.653Z,19.47
2018-06-25T02:14:33.977Z,19.43
2018-06-25T02:17:03.330Z,19.57
2018-06-25T02:19:32.670Z,19.65
2018-06-25T02:22:01.823Z,19.70
2018-06-25T02:24:31.175Z,19.39
2018-06-25T02:27:00.432Z,19.50
2018-06-25T02:29:29.686Z,19.53
2018-06-25T02:31:59.044Z,19.58
2018-06-25T02:34:28.382Z,19.16
2018-06-25T02:36:57.685Z,19.14
2018-06-25T02:39:26.996Z,19.05
2018-06-25T02:41:56.257Z,19.16
2018-06-25T02:44:25.597Z,18.94
2018-06-25T02:46:54.851Z,19.07
2018-06-25T02:49:24.194Z,19.07
2018-06-25T02:51:53.443Z,18.90
2018-06-25T02:54:22.690Z,18.79
2018-06-25T02:56:51.986Z,18.73
2018-06-25T02:59:21.381Z,18.48
2018-06-25T03:01:50.623Z,18.51
2018-06-25T03:04:19.955Z,18.53
2018-06-25T03:06:49.310Z,18.51
2018-06-25T03:09:18.572Z,18.28
2018-06-25T03:11:47.897Z,18.50
2018-06-25T03:14:17.274Z,18.23
2018-06-25T03:16:46.618Z,18.29
2018-06-25T03:19:15.856Z,18.29
2018-06-25T03:21:45.103Z,18.19
2018-06-25T03:24:14.356Z,18.22
2018-06-25T03:26:43.605Z,18.52
2018-06-25T03:29:12.854Z,18.67
2018-06-25T03:31:42.091Z,18.71
2018-06-25T03:34:11.343Z,18.53
2018-06-25T03:36:40.584Z,18.55
2018-06-25T03:39:11.132Z,18.75
2018-06-25T03:41:40.643Z,18.80
2018-06-25T03:44:09.902Z,18.95
2018-06-25T03:46:39.116Z,18.82
2018-06-25T03:49:08.482Z,18.63
2018-06-25T03:51:37.726Z,18.76
2018-06-25T03:54:07.125Z,18.84
2018-06-25T03:56:36.431Z,18.99
2018-06-25T03:59:05.719Z,18.68
2018-06-25T04:01:35.183Z,19.14
2018-06-25T04:04:04.418Z,19.53
2018-06-25T04:06:33.923Z,19.58
2018-06-25T04:09:03.517Z,19.22
2018-06-25T04:11:32.833Z,19.55
2018-06-25T04:14:02.270Z,19.60
2018-06-25T04:16:31.522Z,19.54
2018-06-25T04:19:04.963Z,19.19
2018-06-25T04:21:36.754Z,18.90
2018-06-25T04:24:05.984Z,19.16
2018-06-25T04:26:35.265Z,18.99
2018-06-25T04:29:04.812Z,18.94
2018-06-25T04:31:34.242Z,19.03
2018-06-25T04:34:03.535Z,19.13
2018-06-25T04:36:32.682Z,19.43
2018-06-25T04:39:02.114Z,19.50
2018-06-25T04:41:31.354Z,19.01
2018-06-25T04:44:00.602Z,19.40
2018-06-25T04:46:29.882Z,19.61
2018-06-25T04:48:59.107Z,19.28
2018-06-25T04:51:28.362Z,19.37
2018-06-25T04:53:57.709Z,19.26
2018-06-25T04:56:26.952Z,18.93
2018-06-25T04:58:56.333Z,18.73
2018-06-25T05:01:25.613Z,18.53
2018-06-25T05:03:54.913Z,18.59
2018-06-25T05:06:24.145Z,19.09
2018-06-25T05:08:53.435Z,19.34
2018-06-25T05:11:22.924Z,18.75
2018-06-25T05:13:52.217Z,18.78
2018-06-25T05:16:21.521Z,19.11
2018-06-25T05:18:50.817Z,19.25
2018-06-25T05:21:19.872Z,19.50
2018-06-25T05:23:49.219Z,19.37
2018-06-25T05:26:18.464Z,18.92
2018-06-25T05:28:47.714Z,19.31
2018-06-25T05:31:16.895Z,19.36
2018-06-25T05:33:46.310Z,18.93
2018-06-25T05:36:15.865Z,18.93
2018-06-25T05:38:45.340Z,19.09
2018-06-25T05:41:14.670Z,19.28
2018-06-25T05:43:43.922Z,18.85
2018-06-25T05:46:13.285Z,18.97
2018-06-25T05:48:42.597Z,18.84
2018-06-25T05:51:11.834Z,19.19
2018-06-25T05:53:40.944Z,19.18
2018-06-25T05:56:10.251Z,19.59
2018-06-25T05:58:39.529Z,19.29
2018-06-25T06:01:08.948Z,19.64
2018-06-25T06:03:38.176Z,19.25
2018-06-25T06:06:07.616Z,19.48
2018-06-25T06:08:36.882Z,19.93
2018-06-25T06:11:06.041Z,19.95
2018-06-25T06:13:35.292Z,19.38
2018-06-25T06:16:04.550Z,19.50
2018-06-25T06:18:33.903Z,19.59
2018-06-25T06:21:03.238Z,19.71
2018-06-25T06:23:32.495Z,19.47
2018-06-25T06:26:01.762Z,19.39
2018-06-25T06:28:30.998Z,19.55
2018-06-25T06:31:00.234Z,19.35
2018-06-25T06:33:29.915Z,19.31
2018-06-25T06:35:59.255Z,19.55
2018-06-25T06:38:28.536Z,19.31
2018-06-25T06:40:57.737Z,19.68
2018-06-25T06:43:26.986Z,19.82
2018-06-25T06:45:56.083Z,20.02
2018-06-25T06:48:25.458Z,19.90
2018-06-25T06:50:55.106Z,19.70
2018-06-25T06:53:24.339Z,20.20
2018-06-25T06:55:53.611Z,20.03
2018-06-25T06:58:22.851Z,20.37
2018-06-25T07:00:52.214Z,20.25
2018-06-25T07:03:21.449Z,19.99
2018-06-25T07:05:50.706Z,20.65
2018-06-25T07:08:20.157Z,20.23
2018-06-25T07:10:49.528Z,19.70
2018-06-25T07:13:18.766Z,19.96
2018-06-25T07:15:47.943Z,20.11
2018-06-25T07:18:17.254Z,20.26
2018-06-25T07:20:46.839Z,20.61
2018-06-25T07:23:16.154Z,20.23
2018-06-25T07:25:45.516Z,20.61
2018-06-25T07:28:14.765Z,20.54
2018-06-25T07:30:44.232Z,20.47
2018-06-25T07:33:13.575Z,20.55
2018-06-25T07:35:42.842Z,20.60
2018-06-25T07:38:12.169Z,20.75
2018-06-25T07:40:41.422Z,20.97
2018-06-25T07:43:10.755Z,20.90
2018-06-25T07:45:40.132Z,21.13
2018-06-25T07:48:09.365Z,21.37
2018-06-25T07:50:38.641Z,21.26
2018-06-25T07:53:07.974Z,21.06
2018-06-25T07:55:37.209Z,21.00
2018-06-25T07:58:06.559Z,21.41
2018-06-25T08:00:35.867Z,21.46
2018-06-25T08:03:05.166Z,21.99
2018-06-25T08:05:34.676Z,21.53
2018-06-25T08:08:04.071Z,21.94
2018-06-25T08:10:33.276Z,22.26
2018-06-25T08:13:02.596Z,21.95
2018-06-25T08:15:32.097Z,20.85
2018-06-25T08:18:01.394Z,21.14
2018-06-25T08:20:30.748Z,20.68
2018-06-25T08:23:00.000Z,21.15
2018-06-25T08:25:29.617Z,21.17
2018-06-25T08:27:58.992Z,21.28
2018-06-25T08:30:28.251Z,21.21
2018-06-25T08:32:57.202Z,21.57
2018-06-25T08:35:26.130Z,21.48
2018-06-25T08:37:55.586Z,21.94
2018-06-25T08:40:24.527Z,21.91
2018-06-25T08:42:53.482Z,22.00
2018-06-25T08:45:22.841Z,22.43
2018-06-25T08:47:52.044Z,22.23
2018-06-25T08:50:21.253Z,22.44
2018-06-25T08:52:50.426Z,22.59
2018-06-25T08:55:19.642Z,22.98
2018-06-25T08:57:48.928Z,23.35
2018-06-25T09:00:18.158Z,23.04
2018-06-25T09:02:47.467Z,23.14
2018-06-25T09:05:16.916Z,23.40
2018-06-25T09:07:46.248Z,23.36
2018-06-25T09:10:15.583Z,22.76
2018-06-25T09:12:44.842Z,22.90
2018-06-25T09:15:14.226Z,23.59
2018-06-25T09:20:11.454Z,22.63
2018-06-25T09:22:40.834Z,23.06
2018-06-25T09:25:10.250Z,23.05
2018-06-25T09:27:44.453Z,23.17
2018-06-25T09:30:14.185Z,22.80
2018-06-25T09:32:43.579Z,23.28
2018-06-25T09:35:12.615Z,23.70
2018-06-25T09:37:41.873Z,23.36
2018-06-25T09:40:11.079Z,23.27
2018-06-25T09:42:40.362Z,23.55
2018-06-25T09:45:10.484Z,23.43
2018-06-25T09:47:39.905Z,23.61
2018-06-25T09:50:09.284Z,23.74
2018-06-25T09:52:38.579Z,23.62
2018-06-25T09:55:07.825Z,23.78
2018-06-25T09:57:37.042Z,23.69
2018-06-25T10:00:06.826Z,23.41
2018-06-25T10:02:36.156Z,23.54
2018-06-25T10:05:05.710Z,23.75
2018-06-25T10:07:34.956Z,23.93
2018-06-25T10:10:04.176Z,23.54
2018-06-25T10:12:33.427Z,24.04
2018-06-25T10:15:02.650Z,24.26
2018-06-25T10:17:31.895Z,24.79
2018-06-25T10:20:01.355Z,24.51
2018-06-25T10:22:30.627Z,24.73
2018-06-25T10:24:59.868Z,24.57
2018-06-25T10:27:29.517Z,24.21
2018-06-25T10:29:58.821Z,24.36
2018-06-25T10:32:28.243Z,24.52
2018-06-25T10:34:57.638Z,24.90
2018-06-25T10:37:26.947Z,24.54
2018-06-25T10:39:56.330Z,24.68
2018-06-25T10:42:25.824Z,24.29
2018-06-25T10:44:55.195Z,24.37
2018-06-25T10:47:24.487Z,24.53
2018-06-25T10:49:53.701Z,26.24
2018-06-25T10:52:23.047Z,25.79
2018-06-25T10:54:52.295Z,25.16
2018-06-25T10:57:21.548Z,25.31
2018-06-25T10:59:51.195Z,25.32
2018-06-25T11:02:20.456Z,25.91
2018-06-25T11:04:49.823Z,26.03
2018-06-25T11:07:19.228Z,26.11
2018-06-25T11:09:48.371Z,25.74
2018-06-25T11:12:17.754Z,25.66
2018-06-25T11:14:47.018Z,25.91
2018-06-25T11:17:16.468Z,25.63
2018-06-25T11:19:45.706Z,25.80
2018-06-25T11:22:15.020Z,26.07
2018-06-25T11:24:44.331Z,25.72
2018-06-25T11:27:13.888Z,25.03
2018-06-25T11:29:43.034Z,25.20
2018-06-25T11:32:12.242Z,25.82
2018-06-25T11:34:41.183Z,25.82
2018-06-25T11:37:10.174Z,25.84
2018-06-25T11:39:39.439Z,26.18
2018-06-25T11:42:08.835Z,25.74
2018-06-25T11:44:38.082Z,26.41
2018-06-25T11:47:07.461Z,26.67
2018-06-25T11:49:36.824Z,25.67
2018-06-25T11:52:06.213Z,25.19
2018-06-25T11:54:35.454Z,25.20
2018-06-25T11:57:04.709Z,26.10
2018-06-25T11:59:34.356Z,26.81
2018-06-25T12:02:03.852Z,27.10
2018-06-25T12:04:33.256Z,27.42
2018-06-25T12:07:02.759Z,27.53
2018-06-25T12:09:32.096Z,28.28
2018-06-25T12:12:01.352Z,27.98
2018-06-25T12:14:30.867Z,27.98
2018-06-25T12:17:00.133Z,28.17
2018-06-25T12:19:29.486Z,28.65
2018-06-25T12:21:58.847Z,28.86
2018-06-25T12:24:28.075Z,29.01
2018-06-25T12:26:57.462Z,27.69
2018-06-25T12:29:27.193Z,27.86
2018-06-25T12:31:56.465Z,26.56
2018-06-25T12:34:25.806Z,26.52
2018-06-25T12:36:54.758Z,26.82
2018-06-25T12:39:24.001Z,27.77
2018-06-25T12:41:52.955Z,27.57
2018-06-25T12:44:21.947Z,27.67
2018-06-25T12:46:50.885Z,28.42
2018-06-25T12:49:20.313Z,28.62
2018-06-25T12:51:49.514Z,27.61
2018-06-25T12:54:18.764Z,28.06
2018-06-25T12:56:47.995Z,28.02
2018-06-25T12:59:17.409Z,27.69
2018-06-25T13:01:46.639Z,28.04
2018-06-25T13:04:15.874Z,27.76
2018-06-25T13:06:45.130Z,28.02
2018-06-25T13:09:14.498Z,27.87
2018-06-25T13:11:43.714Z,27.54
2018-06-25T13:14:13.059Z,27.02
2018-06-25T13:16:42.474Z,27.45
2018-06-25T13:19:11.743Z,27.24
2018-06-25T13:21:41.074Z,27.37
2018-06-25T13:24:10.437Z,27.88
2018-06-25T13:26:39.658Z,27.64
2018-06-25T13:29:09.026Z,27.32
2018-06-25T13:31:38.274Z,27.46
2018-06-25T13:34:07.517Z,27.62
2018-06-25T13:36:36.873Z,27.05
2018-06-25T13:39:08.631Z,28.11
2018-06-25T13:41:37.930Z,28.38
2018-06-25T13:44:07.174Z,27.42
2018-06-25T13:46:36.430Z,26.57
2018-06-25T13:49:05.726Z,27.81
2018-06-25T13:51:35.134Z,27.15
2018-06-25T13:54:04.408Z,27.67
2018-06-25T13:56:33.610Z,28.31
2018-06-25T13:59:02.889Z,28.15
2018-06-25T14:01:32.117Z,28.48
2018-06-25T14:04:01.374Z,28.59
2018-06-25T14:06:30.618Z,29.19
2018-06-25T14:08:59.875Z,28.62
2018-06-25T14:11:29.082Z,28.95
2018-06-25T14:13:58.369Z,28.45
2018-06-25T14:16:27.763Z,28.78
2018-06-25T14:18:57.031Z,28.07
2018-06-25T14:21:26.351Z,28.75
2018-06-25T14:24:00.546Z,28.11
2018-06-25T14:26:34.845Z,27.85
2018-06-25T14:29:08.306Z,27.84
2018-06-25T14:31:37.765Z,28.32
2018-06-25T14:34:12.342Z,28.91
2018-06-25T14:36:41.594Z,28.77
2018-06-25T14:39:11.435Z,27.98
2018-06-25T14:41:40.785Z,27.76
2018-06-25T14:44:10.215Z,26.85
2018-06-25T14:46:39.466Z,27.39
2018-06-25T14:49:08.948Z,27.40
2018-06-25T14:51:38.171Z,27.30
2018-06-25T14:54:07.142Z,27.45
2018-06-25T14:56:36.069Z,27.18
2018-06-25T14:59:05.420Z,26.53
2018-06-25T15:01:34.364Z,26.79
2018-06-25T15:04:03.311Z,26.89
2018-06-25T15:06:32.555Z,27.68
2018-06-25T15:09:01.919Z,27.62
2018-06-25T15:11:31.125Z,27.38
2018-06-25T15:14:00.357Z,27.37
2018-06-25T15:16:29.535Z,26.77
2018-06-25T15:18:58.766Z,26.78
2018-06-25T15:21:28.035Z,26.72
2018-06-25T15:23:57.375Z,26.14
2018-06-25T15:26:26.676Z,25.64
2018-06-25T15:28:55.978Z,26.49
2018-06-25T15:31:25.278Z,25.89
2018-06-25T15:33:54.578Z,26.21
2018-06-25T15:36:23.835Z,27.04
2018-06-25T15:38:53.087Z,26.99
2018-06-25T15:41:22.374Z,27.19
2018-06-25T15:43:51.782Z,26.65
2018-06-25T15:46:21.362Z,27.01
2018-06-25T15:48:50.479Z,27.61
2018-06-25T15:51:19.843Z,27.93
2018-06-25T15:53:49.067Z,27.98
2018-06-25T15:56:18.284Z,27.38
2018-06-25T15:58:47.438Z,27.45
2018-06-25T16:01:16.675Z,27.41
2018-06-25T16:03:45.997Z,27.24
2018-06-25T16:06:15.274Z,27.15
2018-06-25T16:08:45.946Z,26.33
2018-06-25T16:11:15.228Z,27.39
2018-06-25T16:13:44.271Z,27.63
2018-06-25T16:16:13.394Z,26.63
2018-06-25T16:18:42.311Z,26.01
2018-06-25T16:21:11.246Z,26.15
2018-06-25T16:23:40.160Z,25.89
2018-06-25T16:26:09.362Z,25.55
2018-06-25T16:28:38.331Z,24.87
2018-06-25T16:31:07.336Z,25.40
2018-06-25T16:33:36.671Z,25.75
2018-06-25T16:36:05.974Z,26.03
2018-06-25T16:38:35.210Z,25.66
2018-06-25T16:41:04.458Z,25.53
2018-06-25T16:43:33.765Z,25.01
2018-06-25T16:46:03.082Z,25.34
2018-06-25T16:48:32.458Z,24.80
2018-06-25T16:51:01.790Z,25.02
2018-06-25T16:53:31.082Z,25.01
2018-06-25T16:56:00.434Z,24.71
2018-06-25T16:58:30.078Z,24.57
2018-06-25T17:00:59.382Z,24.42
2018-06-25T17:03:28.673Z,24.48
2018-06-25T17:05:57.985Z,24.58
2018-06-25T17:08:27.283Z,24.58
2018-06-25T17:10:56.813Z,24.46
2018-06-25T17:13:26.097Z,24.47
2018-06-25T17:15:55.361Z,24.60
2018-06-25T17:18:24.594Z,24.62
2018-06-25T17:20:53.943Z,24.33
2018-06-25T17:23:23.173Z,24.25
2018-06-25T17:25:52.444Z,23.81
2018-06-25T17:28:21.694Z,23.99
2018-06-25T17:30:50.923Z,23.90
2018-06-25T17:33:20.177Z,23.49
2018-06-25T17:35:49.485Z,23.73
2018-06-25T17:38:18.913Z,23.65
2018-06-25T17:40:48.181Z,23.63
2018-06-25T17:43:17.502Z,23.97
2018-06-25T17:45:46.754Z,24.18
2018-06-25T17:48:16.205Z,23.87
2018-06-25T17:50:45.438Z,24.00
2018-06-25T17:53:14.675Z,23.57
2018-06-25T17:55:43.985Z,24.00
2018-06-25T17:58:13.370Z,23.37
2018-06-25T18:00:42.659Z,23.70
2018-06-25T18:03:11.949Z,23.82
2018-06-25T18:05:41.524Z,23.67
2018-06-25T18:08:10.783Z,23.92
2018-06-25T18:10:40.208Z,23.64
2018-06-25T18:13:09.578Z,23.89
2018-06-25T18:15:39.137Z,23.83
2018-06-25T18:18:08.423Z,23.91
2018-06-25T18:20:37.758Z,23.98
2018-06-25T18:23:06.966Z,23.72
2018-06-25T18:25:36.130Z,23.54
2018-06-25T18:28:05.378Z,23.53
2018-06-25T18:30:34.630Z,23.29
2018-06-25T18:33:03.882Z,23.41
2018-06-25T18:35:33.334Z,23.49
2018-06-25T18:38:03.503Z,23.43
2018-06-25T18:40:33.143Z,23.67
2018-06-25T18:43:02.698Z,23.28
2018-06-25T18:45:32.066Z,23.62
2018-06-25T18:48:01.230Z,23.25
2018-06-25T18:50:30.751Z,23.34
2018-06-25T18:53:00.046Z,23.48
2018-06-25T18:55:29.344Z,23.34
2018-06-25T18:57:58.295Z,23.71
2018-06-25T19:00:27.234Z,23.78
2018-06-25T19:02:56.618Z,23.24
2018-06-25T19:05:25.614Z,23.49
2018-06-25T19:07:54.554Z,23.52
2018-06-25T19:10:23.524Z,23.28
2018-06-25T19:12:52.805Z,23.31
2018-06-25T19:15:22.017Z,23.39
2018-06-25T19:17:51.915Z,23.17
2018-06-25T19:20:21.404Z,22.94
2018-06-25T19:22:51.618Z,22.78
2018-06-25T19:25:21.167Z,22.84
2018-06-25T19:27:50.473Z,22.89
2018-06-25T19:30:19.774Z,22.75
2018-06-25T19:32:49.233Z,22.94
2018-06-25T19:35:18.475Z,22.62
2018-06-25T19:37:47.799Z,22.45
2018-06-25T19:40:17.050Z,22.64
2018-06-25T19:42:46.539Z,22.55
2018-06-25T19:45:15.844Z,22.16
2018-06-25T19:47:45.071Z,22.10
2018-06-25T19:50:14.322Z,22.26
2018-06-25T19:52:43.595Z,22.31
2018-06-25T19:55:12.975Z,22.13
2018-06-25T19:57:42.294Z,22.39
2018-06-25T20:00:11.555Z,22.27
2018-06-25T20:02:41.056Z,22.02
2018-06-25T20:05:10.242Z,22.01
2018-06-25T20:07:39.585Z,21.97
2018-06-25T20:10:08.846Z,22.05
2018-06-25T20:12:38.216Z,21.87
2018-06-25T20:15:07.445Z,21.99
2018-06-25T20:17:36.684Z,21.89
2018-06-25T20:20:07.221Z,21.78
2018-06-25T20:22:36.622Z,21.71
2018-06-25T20:25:07.121Z,21.76
2018-06-25T20:27:36.344Z,21.90
2018-06-25T20:30:06.825Z,21.84
2018-06-25T20:32:36.190Z,21.79
2018-06-25T20:35:06.147Z,21.79
2018-06-25T20:37:35.390Z,21.82
2018-06-25T20:40:04.793Z,21.71
2018-06-25T20:42:34.174Z,21.48
2018-06-25T20:45:03.519Z,21.44
2018-06-25T20:47:32.780Z,21.48
2018-06-25T20:50:02.200Z,21.57
2018-06-25T20:52:31.809Z,21.36
2018-06-25T20:55:01.337Z,21.62
2018-06-25T20:57:30.590Z,21.40
2018-06-25T21:00:00.679Z,21.41
2018-06-25T21:02:30.144Z,21.33
2018-06-25T21:04:59.415Z,21.46
2018-06-25T21:07:29.434Z,21.45
2018-06-25T21:09:58.878Z,21.42
2018-06-25T21:12:28.103Z,21.24
2018-06-25T21:14:57.374Z,21.25
2018-06-25T21:17:26.609Z,21.09
2018-06-25T21:19:55.854Z,20.95
2018-06-25T21:22:25.753Z,21.21
2018-06-25T21:24:55.154Z,21.26
2018-06-25T21:27:24.475Z,21.52
2018-06-25T21:29:53.879Z,21.23
2018-06-25T21:32:23.119Z,21.09
2018-06-25T21:34:52.491Z,21.06
2018-06-25T21:37:21.729Z,21.42
2018-06-25T21:39:50.966Z,20.88
2018-06-25T21:42:20.394Z,20.90
2018-06-25T21:44:49.322Z,21.06
2018-06-25T21:47:18.384Z,21.19
2018-06-25T21:49:47.345Z,21.07
2018-06-25T21:52:16.561Z,21.09
2018-06-25T21:54:45.838Z,21.14
2018-06-25T21:57:15.065Z,21.23
2018-06-25T21:59:44.413Z,21.30
2018-06-25T22:02:13.697Z,21.48
2018-06-25T22:04:42.895Z,21.36
2018-06-25T22:07:12.171Z,21.53
2018-06-25T22:09:41.398Z,20.85
2018-06-25T22:12:10.641Z,20.82
2018-06-25T22:14:39.906Z,20.89
2018-06-25T22:17:09.239Z,20.82
2018-06-25T22:19:38.493Z,20.88
2018-06-25T22:22:07.758Z,20.79
2018-06-25T22:24:37.010Z,21.01
2018-06-25T22:27:06.457Z,21.15
2018-06-25T22:29:35.758Z,20.85
2018-06-25T22:32:05.058Z,20.65
2018-06-25T22:34:34.312Z,20.19
2018-06-25T22:37:03.561Z,19.84
2018-06-25T22:39:32.816Z,19.94
2018-06-25T22:42:02.063Z,20.40
2018-06-25T22:44:31.322Z,19.83
2018-06-25T22:47:00.540Z,20.39
2018-06-25T22:49:29.856Z,20.44
2018-06-25T22:51:59.258Z,20.65
2018-06-25T22:54:28.554Z,20.05
2018-06-25T22:56:57.827Z,19.58
2018-06-25T22:59:27.072Z,19.66
2018-06-25T23:01:56.334Z,18.99
2018-06-25T23:04:25.572Z,19.30
2018-06-25T23:06:54.833Z,19.95
2018-06-25T23:09:24.168Z,20.22
2018-06-25T23:11:53.523Z,19.58
2018-06-25T23:14:22.755Z,19.67
2018-06-25T23:16:52.039Z,19.29
2018-06-25T23:19:21.255Z,18.96
2018-06-25T23:21:50.509Z,19.45
2018-06-25T23:24:19.743Z,19.75
2018-06-25T23:26:49.016Z,18.83
2018-06-25T23:29:18.414Z,19.33
2018-06-25T23:31:47.709Z,19.78
2018-06-25T23:34:16.964Z,20.00
2018-06-25T23:36:46.265Z,20.24
2018-06-25T23:39:15.560Z,20.15
2018-06-25T23:41:44.854Z,19.83
2018-06-25T23:44:14.174Z,20.14
2018-06-25T23:46:43.533Z,20.17
2018-06-25T23:49:12.782Z,20.26
2018-06-25T23:51:42.205Z,20.44
2018-06-25T23:54:11.665Z,20.41
2018-06-25T23:56:40.943Z,20.37
2018-06-25T23:59:10.365Z,20.44
